Time;durP1;ratioP1;P1;durP2;ratioP2;P2;SDS_P1;SDS_P2;PMS_P1;PMS_P2;Temp;Humidity;BMP_temperature;BMP_pressure;BME280_temperature;BME280_humidity;BME280_pressure;Samples;Min_cycle;Max_cycle;Signal;HPM_P1;HPM_P2
2023/04/24 00:00:20;;;;;;;1.23;0.80;;;;;;;9.80;100.00;99359.19;691393;28;852;-63
2023/04/24 00:00:41;;;;;;;1.10;0.80;;;;;;;9.77;100.00;99359.22;692332;28;1568;-63
2023/04/24 00:01:01;;;;;;;1.70;0.80;;;;;;;9.80;100.00;99364.41;692772;28;881;-63
2023/04/24 00:01:22;;;;;;;2.00;0.90;;;;;;;9.85;100.00;99356.44;692300;28;1270;-64
2023/04/24 00:01:42;;;;;;;2.10;0.90;;;;;;;9.83;100.00;99353.88;690446;28;1631;-63
2023/04/24 00:02:03;;;;;;;1.73;0.90;;;;;;;9.77;100.00;99354.00;689783;28;4492;-63
2023/04/24 00:02:23;;;;;;;2.47;0.90;;;;;;;9.74;100.00;99361.91;691601;28;899;-63
2023/04/24 00:02:46;;;;;;;2.17;0.80;;;;;;;9.75;100.00;99361.03;690110;28;1556;-64
2023/04/24 00:03:07;;;;;;;1.48;0.88;;;;;;;9.71;100.00;99365.44;687914;28;1271;-63
2023/04/24 00:03:28;;;;;;;2.05;0.88;;;;;;;9.69;100.00;99355.91;688037;28;916;-63
2023/04/24 00:03:49;;;;;;;1.95;0.80;;;;;;;9.72;100.00;99361.09;687293;28;1461;-63
2023/04/24 00:04:10;;;;;;;1.30;0.80;;;;;;;9.78;100.00;99363.56;688299;28;940;-63
2023/04/24 00:04:31;;;;;;;1.30;0.88;;;;;;;9.71;100.00;99360.22;687552;28;1516;-63
2023/04/24 00:04:52;;;;;;;1.48;0.82;;;;;;;9.74;100.00;99356.69;687688;28;1688;-64
2023/04/24 00:05:17;;;;;;;1.17;0.80;;;;;;;9.78;100.00;99358.34;692577;28;4284;-63
2023/04/24 00:05:37;;;;;;;1.48;0.90;;;;;;;9.70;100.00;99355.03;691489;28;1185;-64
2023/04/24 00:05:58;;;;;;;2.03;0.80;;;;;;;9.63;100.00;99356.91;689397;28;1459;-62
2023/04/24 00:06:19;;;;;;;1.70;0.90;;;;;;;9.60;100.00;99353.53;687825;28;1092;-63
2023/04/24 00:06:42;;;;;;;1.40;0.90;;;;;;;9.70;100.00;99362.88;689440;28;986;-63
2023/04/24 00:07:03;;;;;;;1.42;0.75;;;;;;;9.76;100.00;99359.25;686789;28;816;-63
2023/04/24 00:07:23;;;;;;;1.10;0.70;;;;;;;9.69;100.00;99358.53;688062;28;1223;-63
2023/04/24 00:07:45;;;;;;;1.50;0.80;;;;;;;9.68;100.00;99359.44;687525;28;1628;-63
2023/04/24 00:08:05;;;;;;;1.40;1.00;;;;;;;9.67;100.00;99357.72;690738;28;4370;-64
2023/04/24 00:08:26;;;;;;;2.33;1.00;;;;;;;9.61;100.00;99358.72;692756;28;892;-63
2023/04/24 00:08:46;;;;;;;2.75;0.80;;;;;;;9.58;100.00;99350.97;689764;28;1450;-63
2023/04/24 00:09:07;;;;;;;2.63;0.90;;;;;;;9.60;100.00;99358.75;692034;28;1020;-63
2023/04/24 00:09:27;;;;;;;2.33;0.90;;;;;;;9.58;100.00;99360.53;691208;28;1691;-63
2023/04/24 00:09:48;;;;;;;1.83;0.80;;;;;;;9.60;100.00;99357.00;687933;28;1487;-63
2023/04/24 00:10:09;;;;;;;1.70;0.90;;;;;;;9.56;100.00;99359.72;683958;28;1294;-63
2023/04/24 00:10:30;;;;;;;1.50;0.82;;;;;;;9.52;100.00;99357.16;684970;28;829;-63
2023/04/24 00:10:51;;;;;;;1.45;0.80;;;;;;;9.48;100.00;99358.09;683081;28;1738;-63
2023/04/24 00:11:12;;;;;;;1.60;0.88;;;;;;;9.50;100.00;99351.13;682841;28;4311;-63
2023/04/24 00:11:32;;;;;;;2.00;0.83;;;;;;;9.50;100.00;99353.72;684501;28;963;-63
2023/04/24 00:11:53;;;;;;;2.00;0.80;;;;;;;9.43;100.00;99354.75;685891;28;2114;-63
2023/04/24 00:12:14;;;;;;;1.50;0.80;;;;;;;9.47;100.00;99356.41;686288;28;852;-64
2023/04/24 00:12:34;;;;;;;2.07;0.90;;;;;;;9.52;100.00;99351.06;684887;28;1359;-63
2023/04/24 00:12:55;;;;;;;2.40;0.82;;;;;;;9.64;100.00;99349.97;681938;28;1613;-63
2023/04/24 00:13:15;;;;;;;1.37;0.80;;;;;;;9.63;100.00;99353.47;683499;28;889;-63
2023/04/24 00:13:35;;;;;;;1.13;0.70;;;;;;;9.57;100.00;99353.56;683887;28;802;-63
2023/04/24 00:13:56;;;;;;;1.50;0.77;;;;;;;9.53;100.00;99353.66;686369;28;1567;-63
2023/04/24 00:14:17;;;;;;;1.80;0.90;;;;;;;9.49;100.00;99348.53;687568;28;4357;-63
2023/04/24 00:14:38;;;;;;;1.70;0.90;;;;;;;9.43;100.00;99344.31;689257;28;907;-63
2023/04/24 00:14:58;;;;;;;1.05;0.80;;;;;;;9.45;100.00;99350.34;690415;28;1736;-63
2023/04/24 00:15:19;;;;;;;1.40;0.80;;;;;;;9.43;100.00;99348.66;692694;28;938;-63
2023/04/24 00:15:39;;;;;;;1.20;0.70;;;;;;;9.38;100.00;99346.16;691674;28;1438;-63
2023/04/24 00:15:59;;;;;;;2.20;0.90;;;;;;;9.41;100.00;99347.84;687984;28;1605;-63
2023/04/24 00:16:26;;;;;;;2.27;0.93;;;;;;;9.39;100.00;99347.88;688744;28;1167;-63
2023/04/24 00:16:46;;;;;;;1.27;0.90;;;;;;;9.41;100.00;99343.47;687448;28;1510;-63
2023/04/24 00:17:07;;;;;;;1.60;0.90;;;;;;;9.45;100.00;99347.75;687785;28;4514;-63
2023/04/24 00:17:27;;;;;;;1.73;0.82;;;;;;;9.52;100.00;99349.31;689245;28;1048;-64
2023/04/24 00:17:47;;;;;;;2.20;0.90;;;;;;;9.48;100.00;99352.88;689541;28;1408;-63
2023/04/24 00:18:10;;;;;;;1.67;0.90;;;;;;;9.51;100.00;99351.97;689057;28;923;-64
2023/04/24 00:18:30;;;;;;;2.97;0.90;;;;;;;9.59;100.00;99347.44;688766;28;1042;-63
2023/04/24 00:18:52;;;;;;;1.90;0.80;;;;;;;9.56;100.00;99344.91;688596;28;1541;-63
2023/04/24 00:19:12;;;;;;;1.75;0.90;;;;;;;9.57;100.00;99346.63;687853;28;1699;-63
2023/04/24 00:19:33;;;;;;;1.50;0.90;;;;;;;9.58;100.00;99348.34;689283;28;707;-63
2023/04/24 00:19:58;;;;;;;1.87;0.90;;;;;;;9.54;100.00;99347.56;689091;28;1590;-63
2023/04/24 00:20:18;;;;;;;1.27;0.77;;;;;;;9.50;100.00;99345.91;688056;28;4847;-63
2023/04/24 00:20:39;;;;;;;1.20;0.80;;;;;;;9.49;100.00;99344.16;690086;28;793;-64
2023/04/24 00:20:59;;;;;;;1.13;0.80;;;;;;;9.50;100.00;99343.28;688823;28;1556;-63
2023/04/24 00:21:21;;;;;;;1.43;0.80;;;;;;;9.48;100.00;99345.06;692977;28;745;-63
2023/04/24 00:21:41;;;;;;;1.30;0.98;;;;;;;9.47;100.00;99345.97;690102;28;955;-63
2023/04/24 00:22:02;;;;;;;0.97;0.80;;;;;;;9.44;100.00;99346.03;691914;28;863;-63
2023/04/24 00:22:23;;;;;;;1.23;0.82;;;;;;;9.46;100.00;99344.25;691052;28;1445;-63
2023/04/24 00:22:43;;;;;;;1.27;0.80;;;;;;;9.47;100.00;99345.97;691362;28;952;-63
2023/04/24 00:23:03;;;;;;;1.90;0.90;;;;;;;9.42;100.00;99341.75;690932;28;4582;-64
2023/04/24 00:23:26;;;;;;;1.83;0.95;;;;;;;9.43;100.00;99349.53;692578;28;800;-63
2023/04/24 00:23:47;;;;;;;1.73;0.90;;;;;;;9.43;100.00;99344.31;690242;28;1441;-63
2023/04/24 00:24:11;;;;;;;2.03;0.90;;;;;;;9.42;100.00;99347.81;690987;28;1430;-63
2023/04/24 00:24:31;;;;;;;1.63;0.93;;;;;;;9.40;100.00;99343.50;692345;28;919;-63
2023/04/24 00:24:51;;;;;;;1.37;0.90;;;;;;;9.52;100.00;99341.50;691158;28;1002;-63
2023/04/24 00:25:12;;;;;;;1.25;0.82;;;;;;;9.62;100.00;99346.53;692496;28;876;-63
2023/04/24 00:25:32;;;;;;;1.37;0.90;;;;;;;9.61;100.00;99347.41;691551;28;896;-63
2023/04/24 00:25:53;;;;;;;1.35;0.85;;;;;;;9.57;100.00;99348.38;690437;28;1600;-63
2023/04/24 00:26:13;;;;;;;1.67;0.80;;;;;;;9.60;100.00;99343.09;692431;28;4324;-63
2023/04/24 00:26:33;;;;;;;1.60;0.80;;;;;;;9.58;100.00;99345.75;691701;28;912;-63
2023/04/24 00:26:54;;;;;;;2.63;0.87;;;;;;;9.51;100.00;99345.00;691096;28;1579;-63
2023/04/24 00:27:14;;;;;;;2.95;0.90;;;;;;;9.46;100.00;99343.41;691827;28;1414;-63
2023/04/24 00:27:36;;;;;;;1.73;0.87;;;;;;;9.47;100.00;99340.75;691234;28;974;-63
2023/04/24 00:27:57;;;;;;;1.50;0.90;;;;;;;9.47;100.00;99339.88;691280;28;1566;-63
2023/04/24 00:28:17;;;;;;;1.65;0.85;;;;;;;9.47;100.00;99340.75;692969;28;1918;-63
2023/04/24 00:28:38;;;;;;;1.07;0.83;;;;;;;9.50;100.00;99345.91;688775;28;1185;-63
2023/04/24 00:28:58;;;;;;;0.93;0.82;;;;;;;9.50;100.00;99345.91;684936;28;4602;-65
2023/04/24 00:29:19;;;;;;;1.10;0.90;;;;;;;9.48;100.00;99339.00;686076;28;1302;-63
2023/04/24 00:29:40;;;;;;;1.83;0.90;;;;;;;9.48;100.00;99337.22;685593;28;1466;-64
2023/04/24 00:30:01;;;;;;;1.57;1.00;;;;;;;9.47;100.00;99335.53;685327;28;1604;-63
2023/04/24 00:30:21;;;;;;;1.88;0.93;;;;;;;9.48;100.00;99342.44;687002;28;1459;-63
2023/04/24 00:30:41;;;;;;;1.30;0.87;;;;;;;9.48;100.00;99334.63;690522;28;1339;-63
2023/04/24 00:31:02;;;;;;;1.70;0.80;;;;;;;9.49;100.00;99330.28;691226;28;947;-64
2023/04/24 00:31:22;;;;;;;1.83;0.83;;;;;;;9.56;100.00;99331.00;690973;28;1043;-63
2023/04/24 00:31:43;;;;;;;2.70;1.00;;;;;;;9.60;100.00;99338.72;689209;28;1700;-63
2023/04/24 00:32:03;;;;;;;1.40;0.87;;;;;;;9.56;100.00;99338.84;688088;28;4299;-64
2023/04/24 00:32:24;;;;;;;1.45;0.88;;;;;;;9.53;100.00;99335.38;688321;28;989;-63
2023/04/24 00:32:44;;;;;;;1.80;1.00;;;;;;;9.50;100.00;99339.84;690803;28;1500;-63
2023/04/24 00:33:04;;;;;;;2.15;0.90;;;;;;;9.60;100.00;99332.66;689333;28;1144;-64
2023/04/24 00:33:25;;;;;;;1.70;0.80;;;;;;;9.60;100.00;99343.09;689933;28;1399;-63
2023/04/24 00:33:45;;;;;;;1.50;0.80;;;;;;;9.58;100.00;99339.66;687385;28;1611;-63
2023/04/24 00:34:06;;;;;;;1.27;0.90;;;;;;;9.53;100.00;99330.16;688800;28;1394;-63
2023/04/24 00:34:26;;;;;;;3.35;0.88;;;;;;;9.52;100.00;99332.81;689284;28;1013;-63
2023/04/24 00:34:47;;;;;;;4.53;1.10;;;;;;;9.51;100.00;99333.69;683180;28;3392;-63
2023/04/24 00:35:07;;;;;;;1.77;0.98;;;;;;;9.50;100.00;99330.25;678304;29;4406;-63
2023/04/24 00:35:28;;;;;;;1.23;0.90;;;;;;;9.47;100.00;99325.09;679573;29;834;-63
2023/04/24 00:35:48;;;;;;;1.83;0.93;;;;;;;9.56;100.00;99331.00;682659;28;1515;-63
2023/04/24 00:36:09;;;;;;;3.67;0.97;;;;;;;9.60;100.00;99330.06;684956;28;1408;-63
2023/04/24 00:36:30;;;;;;;4.83;0.93;;;;;;;9.58;100.00;99332.69;689375;28;1458;-64
2023/04/24 00:36:52;;;;;;;2.20;0.85;;;;;;;9.56;100.00;99326.66;690478;28;1463;-63
2023/04/24 00:37:12;;;;;;;1.48;0.90;;;;;;;9.54;100.00;99328.44;688812;28;1435;-63
2023/04/24 00:37:32;;;;;;;1.87;0.90;;;;;;;9.56;100.00;99333.63;689477;28;978;-63
2023/04/24 00:37:53;;;;;;;2.67;0.90;;;;;;;9.60;100.00;99333.50;687033;28;1496;-64
2023/04/24 00:38:13;;;;;;;1.53;1.00;;;;;;;9.65;100.00;99325.56;687489;28;4938;-64
2023/04/24 00:38:34;;;;;;;1.53;0.97;;;;;;;9.70;100.00;99334.16;687788;28;923;-64
2023/04/24 00:38:54;;;;;;;2.00;0.90;;;;;;;9.77;100.00;99333.13;684439;28;1719;-64
2023/04/24 00:39:15;;;;;;;2.38;0.90;;;;;;;9.77;100.00;99327.91;683083;28;1119;-64
2023/04/24 00:39:35;;;;;;;2.50;1.00;;;;;;;9.74;100.00;99335.81;683501;28;774;-63
2023/04/24 00:39:56;;;;;;;2.57;1.10;;;;;;;9.71;100.00;99333.28;682554;28;1702;-63
2023/04/24 00:40:17;;;;;;;1.50;0.97;;;;;;;9.70;100.00;99335.00;681649;29;936;-63
2023/04/24 00:40:37;;;;;;;1.57;0.90;;;;;;;9.73;100.00;99333.25;682428;28;1535;-64
2023/04/24 00:40:58;;;;;;;1.38;0.90;;;;;;;9.71;100.00;99333.28;684340;28;4313;-63
2023/04/24 00:41:18;;;;;;;1.50;0.90;;;;;;;9.67;100.00;99332.47;687646;28;912;-63
2023/04/24 00:41:39;;;;;;;1.45;0.90;;;;;;;9.69;100.00;99335.03;688459;28;927;-63
2023/04/24 00:42:01;;;;;;;1.83;1.00;;;;;;;9.66;100.00;99333.38;689690;28;1447;-63
2023/04/24 00:42:21;;;;;;;1.40;1.00;;;;;;;9.65;100.00;99333.41;691859;28;901;-63
2023/04/24 00:42:43;;;;;;;1.55;0.80;;;;;;;9.62;100.00;99333.47;687782;28;1484;-63
2023/04/24 00:43:04;;;;;;;1.63;0.93;;;;;;;9.58;100.00;99331.81;689201;28;872;-64
2023/04/24 00:43:25;;;;;;;2.10;0.90;;;;;;;9.56;100.00;99331.00;689310;28;897;-64
2023/04/24 00:43:46;;;;;;;2.10;0.90;;;;;;;9.55;100.00;99332.75;687899;28;1435;-64
2023/04/24 00:44:07;;;;;;;1.67;0.98;;;;;;;9.54;100.00;99334.50;683203;28;4462;-64
2023/04/24 00:44:27;;;;;;;1.88;1.00;;;;;;;9.53;100.00;99335.38;681640;28;1174;-63
2023/04/24 00:44:49;;;;;;;1.95;1.00;;;;;;;9.50;100.00;99335.47;683063;28;1643;-63
2023/04/24 00:45:09;;;;;;;2.17;1.10;;;;;;;9.54;100.00;99333.66;684172;28;1423;-63
2023/04/24 00:45:31;;;;;;;1.63;1.00;;;;;;;9.54;100.00;99339.72;684234;28;1072;-63
2023/04/24 00:45:51;;;;;;;1.40;0.98;;;;;;;9.56;100.00;99338.84;684525;28;1450;-64
2023/04/24 00:46:12;;;;;;;2.47;1.00;;;;;;;9.68;100.00;99338.56;686341;28;5527;-64
2023/04/24 00:46:33;;;;;;;1.73;0.93;;;;;;;9.66;100.00;99340.34;689903;28;1637;-63
2023/04/24 00:46:54;;;;;;;1.45;0.90;;;;;;;9.67;100.00;99342.06;684678;28;1564;-63
2023/04/24 00:47:15;;;;;;;1.73;1.00;;;;;;;9.69;100.00;99345.47;683962;28;4396;-64
2023/04/24 00:47:36;;;;;;;2.67;1.10;;;;;;;9.63;100.00;99345.63;684867;28;919;-64
2023/04/24 00:47:57;;;;;;;2.20;1.05;;;;;;;9.58;100.00;99342.25;683276;28;1292;-62
2023/04/24 00:48:18;;;;;;;1.75;1.05;;;;;;;9.71;100.00;99336.72;686202;28;1989;-66
2023/04/24 00:48:39;;;;;;;2.17;1.25;;;;;;;9.68;100.00;99333.34;685464;28;883;-63
2023/04/24 00:48:59;;;;;;;2.10;1.30;;;;;;;9.66;100.00;99335.13;685487;28;1604;-64
2023/04/24 00:49:23;;;;;;;1.57;1.00;;;;;;;9.68;100.00;99334.19;686894;28;1433;-64
2023/04/24 00:49:44;;;;;;;1.50;0.98;;;;;;;9.78;100.00;99334.84;684088;28;1551;-64
2023/04/24 00:50:06;;;;;;;1.70;0.90;;;;;;;9.78;100.00;99334.00;682637;28;4344;-62
2023/04/24 00:50:28;;;;;;;1.80;1.00;;;;;;;9.80;100.00;99333.06;683036;28;1391;-64
2023/04/24 00:50:48;;;;;;;1.50;1.00;;;;;;;9.78;100.00;99329.63;684777;28;1687;-63
2023/04/24 00:51:09;;;;;;;2.15;1.08;;;;;;;9.75;100.00;99334.03;689710;28;1188;-64
2023/04/24 00:51:30;;;;;;;2.90;1.00;;;;;;;9.75;100.00;99334.94;689804;28;904;-63
2023/04/24 00:51:51;;;;;;;2.47;1.00;;;;;;;9.80;100.00;99335.69;687828;28;1501;-64
2023/04/24 00:52:12;;;;;;;1.80;1.00;;;;;;;9.78;100.00;99331.41;687015;28;1430;-64
2023/04/24 00:52:32;;;;;;;2.03;1.10;;;;;;;9.79;100.00;99333.97;684213;28;1362;-64
2023/04/24 00:52:53;;;;;;;2.00;1.00;;;;;;;9.77;100.00;99327.91;682920;28;1727;-63
2023/04/24 00:53:13;;;;;;;2.10;1.07;;;;;;;9.74;100.00;99327.13;681066;28;4415;-64
2023/04/24 00:53:34;;;;;;;1.63;1.00;;;;;;;9.74;100.00;99337.56;687981;28;856;-64
2023/04/24 00:53:55;;;;;;;2.20;0.95;;;;;;;9.80;100.00;99332.19;687142;28;1462;-64
2023/04/24 00:54:16;;;;;;;1.40;1.00;;;;;;;9.80;100.00;99333.06;687995;28;1020;-64
2023/04/24 00:54:36;;;;;;;1.23;0.93;;;;;;;9.77;100.00;99337.50;687723;28;1303;-64
2023/04/24 00:54:56;;;;;;;1.42;1.00;;;;;;;9.75;100.00;99332.31;683680;28;917;-64
2023/04/24 00:55:17;;;;;;;1.63;1.00;;;;;;;9.76;100.00;99326.22;681192;29;766;-64
2023/04/24 00:55:38;;;;;;;2.08;1.05;;;;;;;9.81;100.00;99333.94;679968;29;1484;-65
2023/04/24 00:55:59;;;;;;;2.30;1.10;;;;;;;9.78;100.00;99323.56;679254;29;4375;-64
2023/04/24 00:56:20;;;;;;;2.20;1.00;;;;;;;9.83;100.00;99329.50;679942;29;1302;-64
2023/04/24 00:56:42;;;;;;;2.13;1.00;;;;;;;9.82;100.00;99333.03;682899;28;942;-64
2023/04/24 00:57:04;;;;;;;2.00;1.00;;;;;;;9.86;100.00;99332.91;686904;28;1427;-65
2023/04/24 00:57:25;;;;;;;1.85;1.00;;;;;;;9.88;100.00;99325.06;690559;28;907;-64
2023/04/24 00:57:46;;;;;;;2.10;1.10;;;;;;;9.93;100.00;99323.19;690146;28;1473;-64
2023/04/24 00:58:07;;;;;;;1.52;1.02;;;;;;;9.92;100.00;99325.84;688674;28;912;-64
2023/04/24 00:58:27;;;;;;;2.23;1.13;;;;;;;9.88;100.00;99325.94;685895;28;954;-63
2023/04/24 00:58:48;;;;;;;2.17;1.10;;;;;;;9.85;100.00;99330.34;688736;28;1877;-63
2023/04/24 00:59:09;;;;;;;2.80;1.20;;;;;;;9.89;100.00;99332.00;689274;28;4352;-64
2023/04/24 00:59:30;;;;;;;2.67;1.23;;;;;;;9.89;100.00;99326.78;689746;28;869;-64
2023/04/24 00:59:52;;;;;;;2.42;1.10;;;;;;;9.92;100.00;99331.06;687658;28;1663;-64
2023/04/24 01:00:14;;;;;;;2.53;1.08;;;;;;;9.95;100.00;99324.00;690291;28;1394;-64
2023/04/24 01:00:36;;;;;;;2.42;1.00;;;;;;;9.93;100.00;99327.53;685793;28;2239;-64
2023/04/24 01:00:58;;;;;;;1.63;0.95;;;;;;;9.88;100.00;99322.44;690513;28;1590;-64
2023/04/24 01:01:22;;;;;;;1.58;1.00;;;;;;;9.84;100.00;99324.28;686928;28;1303;-63
2023/04/24 01:01:43;;;;;;;2.20;1.00;;;;;;;9.80;100.00;99329.59;688122;28;2317;-63
2023/04/24 01:02:03;;;;;;;1.80;1.00;;;;;;;9.80;100.00;99322.63;687710;28;4359;-63
2023/04/24 01:02:24;;;;;;;2.00;1.00;;;;;;;9.86;100.00;99330.31;688491;28;845;-64
2023/04/24 01:02:45;;;;;;;3.50;1.08;;;;;;;9.81;100.00;99324.34;686389;28;1455;-64
2023/04/24 01:03:06;;;;;;;1.67;0.93;;;;;;;9.86;100.00;99325.09;688759;28;841;-64
2023/04/24 01:03:31;;;;;;;2.20;1.00;;;;;;;9.79;100.00;99325.25;691908;28;1515;-64
2023/04/24 01:03:52;;;;;;;2.88;1.00;;;;;;;9.81;100.00;99319.13;687395;28;2172;-64
2023/04/24 01:04:14;;;;;;;2.63;1.10;;;;;;;9.83;100.00;99321.69;688149;28;971;-63
2023/04/24 01:04:35;;;;;;;2.63;1.10;;;;;;;9.84;100.00;99323.41;683687;28;1349;-64
2023/04/24 01:04:56;;;;;;;1.55;1.05;;;;;;;9.83;100.00;99321.69;683306;28;1468;-63
2023/04/24 01:05:17;;;;;;;1.63;1.10;;;;;;;9.86;100.00;99321.63;683086;28;4356;-64
2023/04/24 01:05:37;;;;;;;1.80;1.20;;;;;;;9.81;100.00;99324.34;683619;28;940;-63
2023/04/24 01:05:58;;;;;;;1.77;1.00;;;;;;;9.85;100.00;99320.75;684810;28;1335;-64
2023/04/24 01:06:19;;;;;;;1.73;1.00;;;;;;;9.84;100.00;99316.47;686031;28;1167;-64
2023/04/24 01:06:42;;;;;;;2.53;1.30;;;;;;;9.81;100.00;99321.72;685962;28;952;-64
2023/04/24 01:07:09;;;;;;;2.25;1.27;;;;;;;9.81;100.00;99324.34;683742;28;892;-64
2023/04/24 01:07:30;;;;;;;1.95;1.10;;;;;;;9.82;100.00;99326.06;685377;28;850;-65
2023/04/24 01:07:51;;;;;;;1.70;1.08;;;;;;;9.79;100.00;99326.13;684907;28;1579;-64
2023/04/24 01:08:12;;;;;;;1.92;1.00;;;;;;;9.92;100.00;99318.03;686851;28;4285;-65
2023/04/24 01:08:34;;;;;;;3.45;1.10;;;;;;;9.89;100.00;99332.00;688658;28;963;-64
2023/04/24 01:08:55;;;;;;;2.45;1.10;;;;;;;9.87;100.00;99319.00;687254;28;1663;-64
2023/04/24 01:09:17;;;;;;;2.10;1.00;;;;;;;9.91;100.00;99321.50;685784;28;1415;-64
2023/04/24 01:09:41;;;;;;;2.55;1.13;;;;;;;9.89;100.00;99324.16;687115;28;1051;-65
2023/04/24 01:10:02;;;;;;;2.97;1.20;;;;;;;9.85;100.00;99319.91;686659;28;1170;-64
2023/04/24 01:10:24;;;;;;;1.77;1.10;;;;;;;9.80;100.00;99327.84;681930;28;830;-64
2023/04/24 01:10:47;;;;;;;1.90;1.10;;;;;;;9.78;100.00;99324.41;680759;28;1444;-64
2023/04/24 01:11:08;;;;;;;2.17;1.13;;;;;;;9.74;100.00;99327.97;684224;28;4359;-64
2023/04/24 01:11:29;;;;;;;2.43;1.10;;;;;;;9.80;100.00;99325.25;686314;28;1409;-65
2023/04/24 01:11:49;;;;;;;1.77;1.05;;;;;;;9.76;100.00;99330.56;683741;28;1514;-64
2023/04/24 01:12:10;;;;;;;1.67;0.90;;;;;;;9.77;100.00;99327.06;688831;28;1454;-64
2023/04/24 01:12:32;;;;;;;1.90;1.00;;;;;;;9.74;100.00;99330.59;691615;28;1192;-64
2023/04/24 01:12:53;;;;;;;1.67;1.00;;;;;;;9.84;100.00;99323.41;691348;28;1477;-65
2023/04/24 01:13:13;;;;;;;1.67;1.00;;;;;;;9.89;100.00;99325.00;689370;28;1132;-64
2023/04/24 01:13:34;;;;;;;1.75;1.05;;;;;;;9.88;100.00;99333.75;688651;28;1529;-64
2023/04/24 01:13:56;;;;;;;1.73;1.00;;;;;;;9.87;100.00;99319.00;687316;28;1520;-64
2023/04/24 01:14:16;;;;;;;2.15;0.93;;;;;;;9.94;100.00;99329.28;690756;28;4299;-64
2023/04/24 01:14:38;;;;;;;2.17;1.10;;;;;;;9.85;100.00;99323.38;688837;28;1207;-64
2023/04/24 01:14:59;;;;;;;3.65;1.20;;;;;;;9.82;100.00;99327.81;684673;28;1560;-64
2023/04/24 01:15:19;;;;;;;3.90;1.10;;;;;;;9.87;100.00;99326.81;685952;28;881;-64
2023/04/24 01:15:40;;;;;;;2.15;1.00;;;;;;;9.85;100.00;99320.75;685238;28;1530;-64
2023/04/24 01:16:02;;;;;;;2.92;1.15;;;;;;;9.93;100.00;99332.75;686246;28;1431;-65
2023/04/24 01:16:22;;;;;;;2.63;1.20;;;;;;;9.92;100.00;99320.63;685172;28;1162;-65
2023/04/24 01:16:43;;;;;;;2.90;1.10;;;;;;;9.88;100.00;99325.06;686888;28;1547;-65
2023/04/24 01:17:03;;;;;;;1.85;1.00;;;;;;;9.87;100.00;99324.22;688476;28;4485;-64
2023/04/24 01:17:24;;;;;;;2.53;1.10;;;;;;;9.94;100.00;99324.94;686901;28;1741;-65
2023/04/24 01:17:44;;;;;;;2.10;1.00;;;;;;;9.88;100.00;99325.06;687937;28;1636;-64
2023/04/24 01:18:05;;;;;;;1.85;1.10;;;;;;;9.82;100.00;99323.44;689120;28;1012;-64
2023/04/24 01:18:27;;;;;;;3.03;1.20;;;;;;;9.85;100.00;99325.97;691469;28;808;-64
2023/04/24 01:18:48;;;;;;;3.20;1.20;;;;;;;9.88;100.00;99328.53;690695;28;1773;-64
2023/04/24 01:19:13;;;;;;;2.40;1.13;;;;;;;9.92;100.00;99325.84;691058;28;1134;-64
2023/04/24 01:19:34;;;;;;;2.55;1.13;;;;;;;9.84;100.00;99324.28;691060;28;1000;-64
2023/04/24 01:19:56;;;;;;;3.10;1.20;;;;;;;9.80;100.00;99325.25;691043;28;1650;-64
2023/04/24 01:20:19;;;;;;;2.47;1.00;;;;;;;9.81;100.00;99331.31;691675;28;4855;-63
2023/04/24 01:20:40;;;;;;;2.17;1.00;;;;;;;9.77;100.00;99327.91;688190;28;1416;-65
2023/04/24 01:21:04;;;;;;;1.75;1.00;;;;;;;9.74;100.00;99330.59;688256;28;1585;-65
2023/04/24 01:21:30;;;;;;;1.50;0.95;;;;;;;9.70;100.00;99324.56;686598;28;1376;-64
2023/04/24 01:21:54;;;;;;;3.35;1.17;;;;;;;9.68;100.00;99328.13;683768;28;1823;-64
2023/04/24 01:22:16;;;;;;;4.00;1.30;;;;;;;9.70;100.00;99329.78;681011;28;1467;-64
2023/04/24 01:22:36;;;;;;;3.25;1.10;;;;;;;9.76;100.00;99333.16;680652;29;924;-65
2023/04/24 01:22:57;;;;;;;2.20;1.10;;;;;;;9.74;100.00;99332.34;680636;29;1539;-64
2023/04/24 01:23:17;;;;;;;2.55;1.20;;;;;;;9.70;100.00;99334.16;681804;28;4292;-64
2023/04/24 01:23:40;;;;;;;1.98;1.10;;;;;;;9.71;100.00;99328.06;682943;28;1415;-65
2023/04/24 01:24:01;;;;;;;1.48;1.00;;;;;;;9.67;100.00;99335.09;685225;28;943;-64
2023/04/24 01:24:22;;;;;;;2.00;1.02;;;;;;;9.69;100.00;99324.59;686127;28;1303;-65
2023/04/24 01:24:43;;;;;;;2.47;1.10;;;;;;;9.73;100.00;99334.09;686158;28;1201;-64
2023/04/24 01:25:06;;;;;;;2.42;1.10;;;;;;;9.71;100.00;99334.13;686907;28;1539;-64
2023/04/24 01:25:27;;;;;;;3.93;1.20;;;;;;;9.82;100.00;99333.03;684580;28;1487;-64
2023/04/24 01:25:51;;;;;;;1.60;1.00;;;;;;;9.86;100.00;99327.69;684986;28;1467;-64
2023/04/24 01:26:14;;;;;;;1.90;0.93;;;;;;;9.86;100.00;99327.69;685483;28;4415;-64
2023/04/24 01:26:35;;;;;;;2.38;1.10;;;;;;;9.82;100.00;99339.09;683516;28;1036;-64
2023/04/24 01:26:56;;;;;;;1.70;1.00;;;;;;;9.85;100.00;99327.75;681600;29;1461;-65
2023/04/24 01:27:17;;;;;;;2.00;1.17;;;;;;;9.88;100.00;99328.53;682387;29;924;-64
2023/04/24 01:27:39;;;;;;;2.25;1.20;;;;;;;9.83;100.00;99330.38;682073;29;872;-65
2023/04/24 01:28:00;;;;;;;2.25;1.20;;;;;;;9.81;100.00;99334.78;680604;29;1364;-64
2023/04/24 01:28:21;;;;;;;1.75;1.20;;;;;;;9.79;100.00;99340.91;685709;28;1907;-64
2023/04/24 01:28:42;;;;;;;1.30;0.93;;;;;;;9.77;100.00;99333.13;688939;28;1632;-65
2023/04/24 01:29:03;;;;;;;2.17;0.98;;;;;;;9.82;100.00;99331.28;689133;28;4497;-65
2023/04/24 01:29:23;;;;;;;1.90;1.10;;;;;;;9.82;100.00;99328.66;689461;28;916;-65
2023/04/24 01:29:44;;;;;;;2.67;1.10;;;;;;;9.77;100.00;99333.13;688907;28;1489;-64
2023/04/24 01:30:06;;;;;;;2.63;1.10;;;;;;;9.74;100.00;99327.97;682564;28;1357;-64
2023/04/24 01:30:27;;;;;;;2.00;1.10;;;;;;;9.74;100.00;99327.13;683402;28;892;-64
2023/04/24 01:30:48;;;;;;;2.00;1.10;;;;;;;9.71;100.00;99335.88;679722;28;1526;-64
2023/04/24 01:31:08;;;;;;;1.95;1.02;;;;;;;9.65;100.00;99336.00;681134;29;3522;-65
2023/04/24 01:31:30;;;;;;;2.22;1.10;;;;;;;9.59;100.00;99339.63;682505;28;1012;-65
2023/04/24 01:31:53;;;;;;;2.35;1.20;;;;;;;9.58;100.00;99335.31;685966;28;1537;-65
2023/04/24 01:32:13;;;;;;;2.30;1.20;;;;;;;9.54;100.00;99342.34;686904;28;4446;-64
2023/04/24 01:32:35;;;;;;;1.95;1.10;;;;;;;9.53;100.00;99343.22;688167;28;969;-65
2023/04/24 01:32:56;;;;;;;2.40;1.10;;;;;;;9.64;100.00;99344.75;686466;28;1537;-65
2023/04/24 01:33:17;;;;;;;2.15;1.10;;;;;;;9.63;100.00;99343.03;689637;28;1267;-65
2023/04/24 01:33:37;;;;;;;2.58;1.10;;;;;;;9.61;100.00;99342.19;691084;28;1307;-64
2023/04/24 01:33:58;;;;;;;2.73;1.13;;;;;;;9.63;100.00;99340.41;689463;28;1702;-65
2023/04/24 01:34:19;;;;;;;2.80;1.20;;;;;;;9.61;100.00;99344.78;691421;28;809;-64
2023/04/24 01:34:40;;;;;;;2.33;1.10;;;;;;;9.61;100.00;99348.28;690885;28;1320;-65
2023/04/24 01:35:01;;;;;;;2.05;1.00;;;;;;;9.59;100.00;99350.06;686928;28;4554;-64
2023/04/24 01:35:21;;;;;;;3.35;1.10;;;;;;;9.64;100.00;99337.78;690803;28;996;-64
2023/04/24 01:35:42;;;;;;;3.23;1.20;;;;;;;9.66;100.00;99346.44;690187;28;1333;-62
2023/04/24 01:36:03;;;;;;;2.37;1.20;;;;;;;9.71;100.00;99338.50;688028;28;1492;-63
2023/04/24 01:36:25;;;;;;;2.65;1.50;;;;;;;9.64;100.00;99342.13;689697;28;735;-64
2023/04/24 01:36:46;;;;;;;2.42;1.33;;;;;;;9.69;100.00;99342.88;688295;28;2079;-65
2023/04/24 01:37:06;;;;;;;3.20;1.50;;;;;;;9.68;100.00;99346.41;689500;28;964;-59
2023/04/24 01:37:27;;;;;;;3.35;1.50;;;;;;;9.64;100.00;99343.00;689662;28;1354;-64
2023/04/24 01:37:47;;;;;;;2.90;1.50;;;;;;;9.73;100.00;99344.53;690622;28;1437;-64
2023/04/24 01:38:08;;;;;;;3.38;1.70;;;;;;;9.70;100.00;99352.44;691059;28;4678;-62
2023/04/24 01:38:30;;;;;;;3.42;1.77;;;;;;;9.64;100.00;99348.22;688594;28;1244;-63
2023/04/24 01:38:50;;;;;;;4.97;1.90;;;;;;;9.64;100.00;99352.56;687310;28;1591;-64
2023/04/24 01:39:10;;;;;;;3.72;1.75;;;;;;;9.53;100.00;99350.19;687878;28;816;-59
2023/04/24 01:39:33;;;;;;;3.87;2.00;;;;;;;9.49;100.00;99349.38;689290;28;865;-64
2023/04/24 01:39:53;;;;;;;3.20;1.77;;;;;;;9.49;100.00;99353.75;688362;28;991;-63
2023/04/24 01:40:14;;;;;;;3.40;1.80;;;;;;;9.49;100.00;99349.38;688426;28;1390;-63
2023/04/24 01:40:35;;;;;;;2.73;1.50;;;;;;;9.56;100.00;99354.50;688618;28;852;-63
2023/04/24 01:40:55;;;;;;;3.30;1.50;;;;;;;9.59;100.00;99360.47;687152;28;1572;-63
2023/04/24 01:41:16;;;;;;;4.80;1.77;;;;;;;9.63;100.00;99351.69;688756;28;4516;-63
2023/04/24 01:41:36;;;;;;;4.07;1.67;;;;;;;9.67;100.00;99358.56;691817;28;1169;-64
2023/04/24 01:41:57;;;;;;;3.45;1.90;;;;;;;9.66;100.00;99361.22;687988;28;1668;-64
2023/04/24 01:42:17;;;;;;;5.20;2.00;;;;;;;9.61;100.00;99357.84;688446;28;1517;-64